Flight Track Log - Related Links

Times and Time Zones

All times are in EDT time to prevent confusion due to time zone crossing. See the XOJ552 flight status page for this flight to view local times or setup timezone preferences in your user account.

Time Position Orientation Groundspeed Altitude Reporting Facility
EDT Latitude Longitude Course Direction KTS MPH feet Rate Location/Type
Fri 11:02:02 AM 34.1833 -118.4833 140° Southeast 174 200 1,700  Level Southern California TRACON
Fri 11:02:56 AM 34.1500 -118.4500 140° Southeast 212 244 4,200 3,000 Climbing Southern California TRACON
Fri 11:05:24 AM 34.2889 -118.4217 10° North 277 319 11,800 3,143 Climbing Los Angeles Center
Fri 11:06:26 AM 34.3672 -118.3811 23° Northeast 300 345 15,200 2,855 Climbing Los Angeles Center
Fri 11:07:28 AM 34.4539 -118.3361 23° Northeast 335 386 17,700 2,419 Climbing Los Angeles Center
Fri 11:08:30 AM 34.5094 -118.2317 57° Northeast 374 430 20,200 2,371 Climbing Los Angeles Center
Fri 11:09:32 AM 34.5503 -118.0894 71° East 406 467 22,600 2,226 Climbing Los Angeles Center
Fri 11:10:34 AM 34.5886 -117.9539 71° East 422 486 24,800 2,129 Climbing Los Angeles Center
Fri 11:11:36 AM 34.6269 -117.8147 71° East 432 497 27,000 2,032 Climbing Los Angeles Center
Fri 11:12:38 AM 34.6658 -117.6714 72° East 448 516 29,000 2,129 Climbing Los Angeles Center
Fri 11:13:40 AM 34.7142 -117.4967 71° East 458 527 31,400 1,887 Climbing Los Angeles Center
Fri 11:14:42 AM 34.7539 -117.3489 72° East 465 535 32,900 1,210 Climbing Los Angeles Center
Fri 11:15:44 AM 34.7953 -117.1961 72° East 478 550 33,900 919 Climbing Los Angeles Center
Fri 11:16:46 AM 34.8383 -117.0397 71° East 492 566 34,800 871 Climbing Los Angeles Center
Fri 11:17:48 AM 34.9006 -116.8908 63° Northeast 501 577 35,700 1,258 Climbing Los Angeles Center
Fri 11:18:50 AM 35.0078 -116.7386 49° Northeast 494 568 37,400 1,536 Climbing Los Angeles Center
Fri 11:19:53 AM 35.0936 -116.6153 50° Northeast 486 559 38,900 1,248 Climbing Los Angeles Center
Fri 11:20:55 AM 35.1756 -116.4961 50° Northeast 470 541 40,000 823 Climbing Los Angeles Center
Fri 11:21:57 AM 35.2572 -116.3758 50° Northeast 462 532 40,600 484 Climbing Los Angeles Center
Fri 11:22:59 AM 35.3408 -116.2547 50° Northeast 466 536 41,000 194 Climbing Los Angeles Center
Fri 11:24:01 AM 35.4406 -116.1058 51° Northeast 472 543 41,000  Level Los Angeles Center
Fri 11:25:03 AM 35.5256 -115.9842 49° Northeast 471 542 41,000  Level Los Angeles Center
Fri 11:26:05 AM 35.6036 -115.8606 52° Northeast 467 537 41,000  Level Los Angeles Center
Fri 11:27:08 AM 35.6414 -115.7058 73° East 473 544 41,000  Level Los Angeles Center
Fri 11:28:10 AM 35.6756 -115.5131 78° East 482 555 41,000  Level Los Angeles Center
Fri 11:29:12 AM 35.7039 -115.3528 78° East 484 557 41,000  Level Los Angeles Center
Fri 11:30:14 AM 35.7314 -115.1944 78° East 479 551 41,000  Level Los Angeles Center
Fri 11:31:16 AM 35.7589 -115.0350 78° East 479 551 41,000  Level Los Angeles Center
Fri 11:32:18 AM 35.7869 -114.8744 78° East 481 554 41,000  Level Los Angeles Center
Fri 11:33:21 AM 35.8203 -114.6789 78° East 486 559 41,000  Level Los Angeles Center
Fri 11:34:23 AM 35.8469 -114.5186 78° East 482 555 41,000  Level Los Angeles Center
Fri 11:35:25 AM 35.8733 -114.3575 79° East 481 554 41,000  Level Los Angeles Center
Fri 11:36:27 AM 35.9008 -114.1956 78° East 483 556 41,000  Level Los Angeles Center
Fri 11:37:29 AM 35.9272 -114.0344 79° East 482 555 41,000  Level Los Angeles Center
Fri 11:38:31 AM 35.9594 -113.8397 78° East 484 557 41,000  Level Los Angeles Center
Fri 11:39:34 AM 35.9856 -113.6769 79° East 484 557 41,000  Level Los Angeles Center
Fri 11:40:36 AM 36.0122 -113.5131 79° East 487 560 41,000  Level Los Angeles Center
Fri 11:41:38 AM 36.0394 -113.3497 78° East 487 560 41,000  Level Los Angeles Center
Fri 11:42:40 AM 36.0664 -113.1758 79° East 489 563 41,000  Level Los Angeles Center
Fri 11:43:42 AM 36.0922 -113.0114 79° East 490 564 41,000  Level Los Angeles Center
Fri 11:44:44 AM 36.1181 -112.8469 79° East 490 564 41,000  Level Los Angeles Center
Fri 11:45:46 AM 36.1478 -112.6489 79° East 491 565 41,000  Level Los Angeles Center
Fri 11:46:48 AM 36.1736 -112.4831 79° East 493 567 41,000  Level Los Angeles Center
Fri 11:47:51 AM 36.1983 -112.3169 80° East 492 566 41,000  Level Los Angeles Center
Fri 11:48:53 AM 36.2228 -112.1517 80° East 491 565 41,000  Level Los Angeles Center
Fri 11:49:55 AM 36.2475 -111.9858 79° East 491 565 41,000  Level Los Angeles Center
Fri 11:50:57 AM 36.2767 -111.7869 80° East 491 565 41,000  Level Los Angeles Center
Fri 11:51:59 AM 36.3006 -111.6194 80° East 496 571 41,000  Level Los Angeles Center
Fri 11:52:41 AM 36.3131 -111.5217 81° East 493 567 41,000  Level Denver Center
Fri 11:53:43 AM 36.3375 -111.3547 80° East 494 568 41,000  Level Denver Center
Fri 11:54:45 AM 36.3644 -111.1531 81° East 496 571 41,000  Level Denver Center
Fri 11:55:47 AM 36.3878 -110.9861 80° East 494 568 41,000  Level Denver Center
Fri 11:56:49 AM 36.4125 -110.8172 80° East 497 572 41,000  Level Denver Center
Fri 11:58:00 AM 36.4330 -110.6269 82° East  Level FlightAware Approximate
Fri 11:58:53 AM 36.4564 -110.4828 82° East 494 568 41,000  Level Denver Center
Fri 11:59:55 AM 36.4772 -110.3147 81° East 495 570 41,000  Level Denver Center
Fri 12:00:57 PM 36.5022 -110.1344 80° East 499 574 41,000  Level Denver Center
Fri 12:01:59 PM 36.5258 -109.9447 81° East 498 573 41,000  Level Denver Center
Fri 12:03:01 PM 36.5472 -109.7811 81° East 500 575 41,000  Level Denver Center
Fri 12:04:03 PM 36.5717 -109.5922 81° East 496 571 41,000  Level Denver Center
Fri 12:05:05 PM 36.5911 -109.4286 82° East 498 573 41,000  Level Denver Center
Fri 12:06:07 PM 36.6144 -109.2389 81° East 495 570 41,000  Level Denver Center
Fri 12:07:09 PM 36.6350 -109.0756 81° East 495 570 41,000  Level Denver Center
Fri 12:08:11 PM 36.6594 -108.8831 81° East 499 574 41,000  Level Denver Center
Fri 12:09:14 PM 36.6783 -108.7178 82° East 500 575 41,000  Level Denver Center
Fri 12:10:16 PM 36.6964 -108.5550 82° East 496 571 41,000  Level Denver Center
Fri 12:11:18 PM 36.7189 -108.3636 82° East 497 572 41,000  Level Denver Center
Fri 12:12:20 PM 36.7364 -108.2014 82° East 494 568 41,000  Level Denver Center
Fri 12:13:22 PM 36.7711 -108.0142 77° East 496 571 41,000  Level Denver Center
Fri 12:14:24 PM 36.8142 -107.8594 71° East 495 570 41,000  Level Denver Center
Fri 12:15:26 PM 36.8631 -107.6786 71° East 492 566 41,000  Level Denver Center
Fri 12:16:28 PM 36.9053 -107.5214 71° East 497 572 41,000  Level Denver Center
Fri 12:17:30 PM 36.9544 -107.3400 71° East 494 568 41,000  Level Denver Center
Fri 12:18:32 PM 36.9964 -107.1836 71° East 496 571 41,000  Level Denver Center
Fri 12:19:34 PM 37.0436 -106.9992 72° East 498 573 41,000  Level Denver Center
Fri 12:20:36 PM 37.0858 -106.8436 71° East 495 570 41,000  Level Denver Center
Fri 12:21:38 PM 37.1269 -106.6872 72° East 494 568 41,000  Level Denver Center
Fri 12:22:40 PM 37.1736 -106.5069 72° East 488 562 41,000  Level Denver Center
Fri 12:23:42 PM 37.2150 -106.3525 71° East 487 560 41,000  Level Denver Center
Fri 12:24:44 PM 37.2603 -106.1711 73° East 488 562 41,000  Level Denver Center
Fri 12:25:46 PM 37.2986 -106.0142 73° East 490 564 41,000  Level Denver Center
Fri 12:26:48 PM 37.3439 -105.8322 73° East 490 564 41,000  Level Denver Center
Fri 12:27:50 PM 37.3872 -105.6783 70° East 489 563 41,000  Level Denver Center
Fri 12:28:52 PM 37.4378 -105.4992 70° East 489 563 41,000  Level Denver Center
Fri 12:29:55 PM 37.4828 -105.3456 70° East 488 562 41,000  Level Denver Center
Fri 12:30:57 PM 37.5336 -105.1658 70° East 489 563 41,000  Level Denver Center
Fri 12:31:59 PM 37.5792 -105.0075 70° East 486 559 41,000  Level Denver Center
Fri 12:33:01 PM 37.6206 -104.8539 71° East 484 557 41,000  Level Denver Center
Fri 12:34:03 PM 37.6714 -104.6747 70° East 484 557 41,000  Level Denver Center
Fri 12:35:05 PM 37.7136 -104.5203 71° East 483 556 41,000  Level Denver Center
Fri 12:36:07 PM 37.7625 -104.3394 71° East 483 556 41,000  Level Denver Center
Fri 12:37:09 PM 37.8047 -104.1842 71° East 483 556 41,000  Level Denver Center
Fri 12:38:11 PM 37.8472 -104.0278 71° East 485 558 41,000  Level Denver Center
Fri 12:39:13 PM 37.8950 -103.8481 71° East 480 552 41,000  Level Denver Center
Fri 12:40:15 PM 37.9356 -103.6953 71° East 476 548 41,000  Level Denver Center
Fri 12:41:17 PM 37.9817 -103.5183 72° East 471 542 41,000  Level Denver Center
Fri 12:42:19 PM 38.0225 -103.3661 71° East 474 545 41,000  Level Denver Center
Fri 12:43:21 PM 38.0675 -103.1903 72° East 470 541 41,000  Level Denver Center
Fri 12:44:23 PM 38.1108 -103.0258 71° East 468 539 41,000  Level Denver Center
Fri 12:45:25 PM 38.1497 -102.8742 72° East 473 544 41,000  Level Denver Center
Fri 12:46:27 PM 38.1878 -102.7208 72° East 474 545 41,000  Level Denver Center
Fri 12:47:29 PM 38.2217 -102.5381 77° East 476 548 41,000  Level Denver Center
Fri 12:48:31 PM 38.2483 -102.3797 78° East 478 550 41,000  Level Denver Center
Fri 12:49:33 PM 38.2778 -102.1950 78° East 478 550 41,000  Level Denver Center
Fri 12:50:36 PM 38.3047 -102.0356 78° East 480 552 41,000  Level Denver Center
Fri 12:51:38 PM 38.3342 -101.8503 78° East 479 551 41,000  Level Denver Center
Fri 12:52:40 PM 38.3589 -101.6908 79° East 479 551 41,000  Level Denver Center
Fri 12:53:42 PM 38.3878 -101.5039 79° East 480 552 41,000  Level Denver Center
Fri 12:54:44 PM 38.4133 -101.3428 79° East 482 555 41,000  Level Denver Center
Fri 12:55:46 PM 38.4419 -101.1547 79° East 483 556 41,000  Level Denver Center
Fri 12:56:48 PM 38.4667 -100.9936 79° East 482 555 41,000  Level Denver Center
Fri 12:57:50 PM 38.4903 -100.8339 79° East 479 551 41,000  Level Denver Center
Fri 12:58:52 PM 38.5186 -100.6464 79° East 479 551 41,000  Level Denver Center
Fri 12:59:54 PM 38.5425 -100.4881 79° East 476 548 41,000  Level Denver Center
Fri 01:00:56 PM 38.5700 -100.3028 79° East 474 545 41,000  Level Denver Center
Fri 01:01:58 PM 38.5919 -100.1414 80° East 478 550 41,000  Level Denver Center
Fri 01:03:00 PM 38.6183 -99.9558 80° East 474 545 41,000  Level Denver Center
Fri 01:04:02 PM 38.6406 -99.7969 80° East 474 545 41,000  Level Denver Center
Fri 01:05:04 PM 38.6667 -99.6097 80° East 479 551 41,000  Level Denver Center
Fri 01:06:06 PM 38.6892 -99.4483 80° East 480 552 41,000  Level Denver Center
Fri 01:07:08 PM 38.7142 -99.2611 80° East 479 551 41,000  Level Denver Center
Fri 01:08:28 PM 38.7444 -99.0544 79° East 481 554 41,000  Level Kansas City Center
Fri 01:09:30 PM 38.7661 -98.8867 81° East 478 550 41,000  Level Kansas City Center
Fri 01:10:32 PM 38.7889 -98.7203 80° East 475 547 41,000  Level Kansas City Center
Fri 01:11:34 PM 38.8100 -98.5519 81° East 476 548 41,000  Level Kansas City Center
Fri 01:12:36 PM 38.8317 -98.3847 81° East 475 547 41,000  Level Kansas City Center
Fri 01:13:38 PM 38.8569 -98.1819 81° East 477 549 41,000  Level Kansas City Center
Fri 01:14:40 PM 38.8781 -98.0128 81° East 479 551 41,000  Level Kansas City Center
Fri 01:15:42 PM 38.8992 -97.8444 81° East 477 549 41,000  Level Kansas City Center
Fri 01:16:44 PM 38.9222 -97.6581 81° East 473 544 41,000  Level Kansas City Center
Fri 01:17:46 PM 38.9608 -97.4914 73° East 495 570 41,000  Level Kansas City Center
Fri 01:18:48 PM 39.0064 -97.3181 71° East 479 551 41,000  Level Kansas City Center
Fri 01:19:50 PM 39.0464 -97.1633 72° East 477 549 41,000  Level Kansas City Center
Fri 01:20:52 PM 39.0889 -97.0092 70° East 478 550 41,000  Level Kansas City Center
Fri 01:21:54 PM 39.1361 -96.8286 71° East 477 549 41,000  Level Kansas City Center
Fri 01:22:56 PM 39.1761 -96.6708 72° East 480 552 41,000  Level Kansas City Center
Fri 01:23:58 PM 39.2222 -96.4883 72° East 481 554 41,000  Level Kansas City Center
Fri 01:25:01 PM 39.2594 -96.3278 73° East 484 557 41,000  Level Kansas City Center
Fri 01:26:03 PM 39.3094 -96.1453 70° East 483 556 41,000  Level Kansas City Center
Fri 01:27:05 PM 39.3453 -95.9869 74° East 480 552 41,000  Level Kansas City Center
Fri 01:28:07 PM 39.3922 -95.8033 72° East 481 554 41,000  Level Kansas City Center
Fri 01:29:09 PM 39.4311 -95.6447 72° East 482 555 41,000  Level Kansas City Center
Fri 01:30:11 PM 39.4758 -95.4625 72° East 479 551 41,000  Level Kansas City Center
Fri 01:31:13 PM 39.5164 -95.2978 72° East 480 552 41,000  Level Kansas City Center
Fri 01:32:15 PM 39.5550 -95.1411 72° East 481 554 41,000  Level Kansas City Center
Fri 01:33:17 PM 39.5992 -94.9550 73° East 480 552 41,000  Level Kansas City Center
Fri 01:34:19 PM 39.6375 -94.7961 73° East 480 552 41,000  Level Kansas City Center
Fri 01:35:21 PM 39.6808 -94.6094 73° East 483 556 41,000  Level Kansas City Center
Fri 01:36:23 PM 39.7183 -94.4500 73° East 482 555 41,000  Level Kansas City Center
Fri 01:37:25 PM 39.7617 -94.2642 73° East 481 554 41,000  Level Kansas City Center
Fri 01:38:27 PM 39.7983 -94.1036 73° East 483 556 41,000  Level Kansas City Center
Fri 01:39:29 PM 39.8333 -93.9486 74° East 482 555 41,000  Level Kansas City Center
Fri 01:40:31 PM 39.8794 -93.7494 73° East 482 555 41,000  Level Kansas City Center
Fri 01:41:33 PM 39.9169 -93.5839 73° East 482 555 41,000  Level Kansas City Center
Fri 01:42:35 PM 39.9542 -93.4153 74° East 486 559 41,000  Level Kansas City Center
Fri 01:43:37 PM 39.9903 -93.2467 74° East 488 562 41,000  Level Kansas City Center
Fri 01:44:39 PM 40.0292 -93.0794 73° East 488 562 41,000  Level Kansas City Center
Fri 01:45:41 PM 40.0697 -92.8922 74° East 488 562 41,000  Level Kansas City Center
Fri 01:46:43 PM 40.1111 -92.7000 74° East 492 566 41,000  Level Kansas City Center
Fri 01:47:45 PM 40.1456 -92.5347 75° East 492 566 41,000  Level Kansas City Center
Fri 01:48:48 PM 40.1808 -92.3703 74° East 492 566 41,000  Level Kansas City Center
Fri 01:49:50 PM 40.2217 -92.1703 75° East 492 566 41,000  Level Kansas City Center
Fri 01:50:52 PM 40.2553 -92.0008 75° East 488 562 41,000  Level Kansas City Center
Fri 01:51:54 PM 40.2889 -91.8306 75° East 487 560 41,000  Level Kansas City Center
Fri 01:52:56 PM 40.3222 -91.6614 75° East 485 558 41,000  Level Kansas City Center
Fri 01:53:58 PM 40.3633 -91.4564 75° East 486 559 41,000  Level Kansas City Center
Fri 01:55:00 PM 40.3964 -91.2844 76° East 487 560 41,000  Level Kansas City Center
Fri 01:56:00 PM 40.4331 -91.1139 74° East 487 560 41,000  Level Chicago Center
Fri 01:57:03 PM 40.4661 -90.9411 76° East 489 563 41,000  Level Chicago Center
Fri 01:58:05 PM 40.4978 -90.7692 76° East 487 560 41,000  Level Chicago Center
Fri 01:59:07 PM 40.5303 -90.5967 76° East 487 560 41,000  Level Chicago Center
Fri 02:00:11 PM 40.5714 -90.3914 75° East 486 559 41,000  Level Chicago Center
Fri 02:01:13 PM 40.6044 -90.2239 75° East 489 563 41,000  Level Chicago Center
Fri 02:02:15 PM 40.6389 -90.0489 75° East 494 568 41,000  Level Chicago Center
Fri 02:03:17 PM 40.6728 -89.8742 76° East 496 571 41,000  Level Chicago Center
Fri 02:04:19 PM 40.7114 -89.6603 77° East 499 574 41,000  Level Chicago Center
Fri 02:05:21 PM 40.7456 -89.4875 75° East 506 582 41,000  Level Chicago Center
Fri 02:06:23 PM 40.7786 -89.3097 76° East 503 579 41,000  Level Chicago Center
Fri 02:07:26 PM 40.8119 -89.1319 76° East 504 580 41,000  Level Chicago Center
Fri 02:08:27 PM 40.8447 -88.9542 76° East 502 578 41,000  Level Chicago Center
Fri 02:09:30 PM 40.8833 -88.7392 77° East 497 572 41,000  Level Chicago Center
Fri 02:10:32 PM 40.9153 -88.5614 77° East 498 573 41,000  Level Chicago Center
Fri 02:11:34 PM 40.9478 -88.3833 76° East 501 577 41,000  Level Chicago Center
Fri 02:12:36 PM 40.9792 -88.2039 77° East 506 582 41,000  Level Chicago Center
Fri 02:13:38 PM 41.0108 -88.0278 77° East 501 577 41,000  Level Chicago Center
Fri 02:14:40 PM 41.0475 -87.8119 77° East 505 581 41,000  Level Chicago Center
Fri 02:15:42 PM 41.0781 -87.6333 77° East 505 581 41,000  Level Chicago Center
Fri 02:16:44 PM 41.1092 -87.4528 77° East 506 582 41,000  Level Chicago Center
Fri 02:17:46 PM 41.1389 -87.2739 78° East 504 580 41,000  Level Chicago Center
Fri 02:18:48 PM 41.1756 -87.0561 77° East 508 585 41,000  Level Chicago Center
Fri 02:19:51 PM 41.2058 -86.8744 77° East 508 585 41,000  Level Chicago Center
Fri 02:20:53 PM 41.2311 -86.7153 78° East 506 582 41,000  Level Chicago Center
Fri 02:21:55 PM 41.2658 -86.4961 78° East 507 583 41,000  Level Chicago Center
Fri 02:22:57 PM 41.2953 -86.3122 78° East 508 585 41,000  Level Chicago Center
Fri 02:23:59 PM 41.3231 -86.1278 79° East 512 589 41,000  Level Chicago Center
Fri 02:25:01 PM 41.3517 -85.9442 78° East 511 588 41,000  Level Chicago Center
Fri 02:26:03 PM 41.3797 -85.7594 78° East 513 590 41,000  Level Chicago Center
Fri 02:27:05 PM 41.4136 -85.5364 78° East 520 598 41,000  Level Chicago Center
Fri 02:28:07 PM 41.4408 -85.3542 79° East 516 594 41,000  Level Chicago Center
Fri 02:29:09 PM 41.4681 -85.1711 79° East 515 593 41,000  Level Chicago Center
Fri 02:30:11 PM 41.4950 -84.9867 79° East 513 590 41,000  Level Chicago Center
Fri 02:31:14 PM 41.5272 -84.7653 79° East 511 588 41,000  Level Chicago Center
Fri 02:32:16 PM 41.5536 -84.5817 79° East 510 587 41,000  Level Chicago Center
Fri 02:33:18 PM 41.5800 -84.3956 79° East 512 589 41,000  Level Chicago Center
Fri 02:34:21 PM 41.6058 -84.2108 79° East 509 586 41,000  Level Chicago Center
Fri 02:35:22 PM 41.6317 -84.0261 79° East 509 586 41,000  Level Chicago Center
Fri 02:36:24 PM 41.6608 -83.8022 80° East 510 587 41,000  Level Chicago Center
Fri 02:37:40 PM 41.6903 -83.5686 80° East 509 586 41,000  Level Cleveland Center
Fri 02:38:42 PM 41.7156 -83.3822 80° East 512 589 41,000  Level Cleveland Center
Fri 02:39:44 PM 41.7386 -83.1969 80° East 511 588 41,000  Level Cleveland Center
Fri 02:40:46 PM 41.7639 -83.0100 80° East 513 590 41,000  Level Cleveland Center
Fri 02:41:48 PM 41.7864 -82.8228 81° East 514 592 41,000  Level Cleveland Center
Fri 02:42:50 PM 41.8156 -82.5967 80° East 517 595 41,000  Level Cleveland Center
Fri 02:43:53 PM 41.8381 -82.4083 81° East 516 594 41,000  Level Cleveland Center
Fri 02:44:55 PM 41.8606 -82.2189 81° East 517 595 41,000  Level Cleveland Center
Fri 02:45:57 PM 41.8831 -82.0208 81° East 512 589 41,000  Level Cleveland Center
Fri 02:46:59 PM 41.9058 -81.8317 81° East 508 585 41,000  Level Cleveland Center
Fri 02:48:01 PM 41.9283 -81.6425 81° East 506 582 41,000  Level Cleveland Center
Fri 02:49:03 PM 41.9486 -81.4542 82° East 504 580 41,000  Level Cleveland Center
Fri 02:50:05 PM 41.9697 -81.2669 81° East 502 578 41,000  Level Cleveland Center
Fri 02:51:07 PM 41.9944 -81.0447 81° East 508 585 41,000  Level Cleveland Center
Fri 02:52:09 PM 42.0153 -80.8558 81° East 507 583 41,000  Level Cleveland Center
Fri 02:53:11 PM 42.0358 -80.6658 82° East 509 586 41,000  Level Cleveland Center
Fri 02:54:13 PM 42.0567 -80.4753 82° East 509 586 41,000  Level Cleveland Center
Fri 02:55:16 PM 42.0750 -80.2842 83° East 510 587 41,000  Level Cleveland Center
Fri 02:56:18 PM 42.0944 -80.0911 82° East 515 593 41,000  Level Cleveland Center
Fri 02:57:20 PM 42.1169 -79.8769 82° East 512 589 41,000  Level Cleveland Center
Fri 02:58:22 PM 42.1347 -79.6867 83° East 514 592 41,000  Level Cleveland Center
Fri 02:59:24 PM 42.1533 -79.4967 82° East 514 592 41,000  Level Cleveland Center
Fri 03:00:26 PM 42.1708 -79.3083 83° East 510 587 41,000  Level Cleveland Center
Fri 03:01:28 PM 42.1933 -79.1167 81° East 514 592 41,000  Level Cleveland Center
Fri 03:02:30 PM 42.2231 -78.8908 80° East 514 592 41,000  Level Cleveland Center
Fri 03:03:32 PM 42.2469 -78.6992 80° East 518 596 41,000  Level Cleveland Center
Fri 03:04:34 PM 42.2703 -78.5106 80° East 514 592 41,000  Level Cleveland Center
Fri 03:05:37 PM 42.2933 -78.3225 81° East 511 588 41,000  Level Cleveland Center
Fri 03:06:39 PM 42.3161 -78.1364 81° East 508 585 41,000  Level Cleveland Center
Fri 03:07:41 PM 42.3436 -77.9133 80° East 507 583 41,000  Level Cleveland Center
Fri 03:08:43 PM 42.3653 -77.7258 81° East 513 590 41,000  Level Cleveland Center
Fri 03:09:45 PM 42.3875 -77.5392 81° East 513 590 41,000  Level Cleveland Center
Fri 03:10:47 PM 42.4083 -77.3519 81° East 513 590 41,000  Level Cleveland Center
Fri 03:11:49 PM 42.4333 -77.1275 81° East 509 586 41,000  Level Cleveland Center
Fri 03:12:51 PM 42.4533 -76.9386 82° East 509 586 41,000  Level Cleveland Center
Fri 03:13:53 PM 42.4739 -76.7503 82° East 511 588 41,000  Level Cleveland Center
Fri 03:14:55 PM 42.4942 -76.5617 82° East 509 586 41,000  Level Cleveland Center
Fri 03:15:57 PM 42.5156 -76.3567 82° East 506 582 41,000  Level Cleveland Center
Fri 03:17:00 PM 42.5342 -76.1656 82° East 513 590 41,000  Level Cleveland Center
Fri 03:18:02 PM 42.5528 -75.9758 82° East 513 590 41,000  Level Cleveland Center
Fri 03:19:04 PM 42.5614 -75.7853 86° East 509 586 41,000  Level Cleveland Center
Fri 03:20:06 PM 42.5378 -75.5561 98° East 514 592 41,000  Level Cleveland Center
Fri 03:21:08 PM 42.5181 -75.3653 98° East 514 592 41,000 -194 Level Cleveland Center
Fri 03:22:10 PM 42.4997 -75.1750 97° East 515 593 40,600 -1,548 Descending Cleveland Center
Fri 03:23:12 PM 42.4789 -74.9875 99° East 510 587 37,800 -2,603 Descending Cleveland Center
Fri 03:24:26 PM 42.4564 -74.7586 98° East 512 589 34,700 -2,696 Descending Boston Center
Fri 03:25:30 PM 42.4333 -74.5444 98° East 484 557 31,600 -2,516 Descending Boston Center
Fri 03:26:30 PM 42.4167 -74.3981 99° East 476 548 29,500 -1,636 Descending Boston Center
Fri 03:27:31 PM 42.3947 -74.1911 98° East 466 536 28,300 -1,210 Descending Boston Center
Fri 03:28:34 PM 42.3753 -74.0275 99° East 449 517 27,000 -683 Descending Boston Center
Fri 03:29:34 PM 42.3575 -73.8658 98° East 440 506 26,900 -942 Descending Boston Center
Fri 03:30:35 PM 42.3392 -73.7058 99° East 435 501 25,100 -1,403 Descending Boston Center
Fri 03:31:38 PM 42.3203 -73.5467 99° East 429 494 24,000 -871 Descending Boston Center
Fri 03:32:39 PM 42.3022 -73.3883 99° East 428 493 23,300 -1,279 Descending Boston Center
Fri 03:33:40 PM 42.2678 -73.2444 108° East 422 486 21,400 -2,115 Descending Boston Center
Fri 03:34:41 PM 42.1842 -73.1003 128° Southeast 415 478 19,000 -1,161 Descending Boston Center
Fri 03:35:44 PM 42.1092 -72.9697 128° Southeast 411 473 19,000  Level Boston Center
Fri 03:36:45 PM 42.0372 -72.8506 129° Southeast 410 472 19,000  Level Boston Center
Fri 03:37:48 PM 41.9686 -72.7358 129° Southeast 406 467 19,000  Level Boston Center
Fri 03:38:49 PM 41.8978 -72.6106 127° Southeast 398 458 19,000 -238 Level Boston Center
Fri 03:39:29 PM 41.8536 -72.5306 127° Southeast 385 443 18,600 -1,180 Descending Boston Center
Fri 03:39:50 PM 41.8328 -72.4942 128° Southeast 389 448 17,800 -2,291 Descending Boston Center
Fri 03:40:24 PM 41.7992 -72.4314 126° Southeast 369 425 16,500 -2,459 Descending Boston Center
Fri 03:40:51 PM 41.7669 -72.3769 128° Southeast 369 425 15,300 -2,364 Descending Boston Center
Fri 03:41:30 PM 41.7297 -72.3094 126° Southeast 366 421 13,900 -2,286 Descending Boston Center
Fri 03:41:54 PM 41.7044 -72.2644 127° Southeast 364 419 12,900 -2,459 Descending Boston Center
Fri 03:42:31 PM 41.6686 -72.1997 127° Southeast 361 415 11,400 -1,839 Descending Boston Center
Fri 03:42:56 PM 41.6450 -72.1589 128° Southeast 357 411 11,000 -522 Descending Boston Center
Fri 03:43:17 PM 41.6228 -72.1189 127° Southeast 352 405 11,000 -197 Level Boston Center
Fri 03:43:57 PM 41.5875 -72.0564 127° Southeast 347 399 10,800 -750 Descending Boston Center
Fri 03:44:21 PM 41.5603 -72.0261 140° Southeast 314 361 10,200 -1,800 Descending Boston Center
Fri 03:44:57 PM 41.5050 -72.0125 170° South 321 369 9,000 -2,000 Descending Boston Center
Fri 03:45:21 PM 41.4706 -72.0100 177° South 320 368 8,200 -1,810 Descending Boston Center
Fri 03:46:00 PM 41.4200 -72.0017 173° South 310 357 7,100 -1,869 Descending Boston Center
Fri 03:46:22 PM 41.3889 -71.9967 173° South 298 343 6,300 -1,180 Descending Boston Center
Fri 03:47:01 PM 41.3347 -71.9867 172° South 290 334 5,900 -800 Descending Boston Center
Fri 03:47:22 PM 41.3128 -71.9886 184° South 270 311 5,500 -1,048 Descending Boston Center
Fri 03:48:04 PM 41.2683 -72.0233 210° Southwest 269 310 4,800 -874 Descending Boston Center
Fri 03:49:05 PM 41.2106 -72.0644 208° Southwest 261 300 4,000 -397 Descending Boston Center
Fri 03:50:05 PM 41.1503 -72.1078 208° Southwest 249 287 4,000  Level Boston Center
Fri 03:51:09 PM 41.0950 -72.1489 209° Southwest 227 261 4,000 -484 Level Boston Center
Fri 03:52:09 PM 41.0228 -72.1394 174° South 213 245 3,000 -1,140 Descending Boston Center
Fri 03:53:10 PM 40.9756 -72.1469 187° South 185 213 1,700 -1,008 Descending Boston Center
Fri 03:54:14 PM 40.9594 -72.1847 241° Southwest 141 162 900 -677 Descending Boston Center
Fri 03:55:14 PM 40.9589 -72.2244 269° West 120 138 300 -600 Descending Boston Center

Login

Don't have an account? Register now (free) for customized features, flight alerts, and more!